createdAt,value
2022-12-01T00:01:07.206Z,92.32
2022-12-01T00:03:34.046Z,91.54
2022-12-01T00:06:04.194Z,92.01
2022-12-01T00:08:31.932Z,92.21
2022-12-01T00:11:06.997Z,93.38
2022-12-01T00:13:34.382Z,94.37
2022-12-01T00:16:15.325Z,94.06
2022-12-01T00:18:42.435Z,94.76
2022-12-01T00:21:16.774Z,91.95
2022-12-01T00:23:48.018Z,89.57
2022-12-01T00:26:16.128Z,87.31
2022-12-01T00:28:43.134Z,89.48
2022-12-01T00:31:11.120Z,88.95
2022-12-01T00:33:38.202Z,88.47
2022-12-01T00:36:06.288Z,89.15
2022-12-01T00:38:33.848Z,88.57
2022-12-01T00:41:00.608Z,88.98
2022-12-01T00:43:27.228Z,89.14
2022-12-01T00:45:55.023Z,88.44
2022-12-01T00:48:21.885Z,89.24
2022-12-01T00:50:51.170Z,88.19
2022-12-01T00:53:18.085Z,86.74
2022-12-01T00:55:44.850Z,87.88
2022-12-01T00:58:11.465Z,88.72
2022-12-01T01:00:38.682Z,87.15
2022-12-01T01:03:07.054Z,86.88
2022-12-01T01:05:40.188Z,85.70
2022-12-01T01:08:09.079Z,85.41
2022-12-01T01:10:39.989Z,85.84
2022-12-01T01:13:06.726Z,85.08
2022-12-01T01:15:33.696Z,86.01
2022-12-01T01:18:00.498Z,86.00
2022-12-01T01:20:27.096Z,86.74
2022-12-01T01:22:53.740Z,87.70
2022-12-01T01:25:20.352Z,87.86
2022-12-01T01:27:47.023Z,88.83
2022-12-01T01:30:14.058Z,88.25
2022-12-01T01:32:40.695Z,88.33
2022-12-01T01:35:08.235Z,87.20
2022-12-01T01:37:34.955Z,88.20
2022-12-01T01:40:01.657Z,87.50
2022-12-01T01:42:28.410Z,88.51
2022-12-01T01:44:59.095Z,89.00
2022-12-01T01:47:26.607Z,87.92
2022-12-01T01:49:56.353Z,87.97
2022-12-01T01:52:23.741Z,88.69
2022-12-01T01:54:53.517Z,88.82
2022-12-01T01:57:26.794Z,87.83
2022-12-01T01:59:58.120Z,87.83
2022-12-01T02:02:25.650Z,87.76
2022-12-01T02:04:57.303Z,87.29
2022-12-01T02:07:24.114Z,87.51
2022-12-01T02:09:51.185Z,88.67
2022-12-01T02:12:42.125Z,89.48
2022-12-01T02:15:46.674Z,88.17
2022-12-01T02:18:32.719Z,88.64
2022-12-01T02:21:17.430Z,88.55
2022-12-01T02:23:49.728Z,88.50
2022-12-01T02:26:34.276Z,89.52
2022-12-01T02:29:30.092Z,89.91
2022-12-01T02:32:21.844Z,89.60
2022-12-01T02:35:14.567Z,88.87
2022-12-01T02:37:51.110Z,89.39
2022-12-01T02:40:20.945Z,89.18
2022-12-01T02:42:50.574Z,89.18
2022-12-01T02:45:40.992Z,88.73
2022-12-01T02:48:23.998Z,88.92
2022-12-01T02:50:52.619Z,88.93
2022-12-01T02:53:19.836Z,89.56
2022-12-01T02:55:48.716Z,90.78
2022-12-01T02:58:15.971Z,90.89
2022-12-01T03:01:11.622Z,90.21
2022-12-01T03:04:21.603Z,91.30
2022-12-01T03:06:56.040Z,92.82
2022-12-01T03:09:31.611Z,92.18
2022-12-01T03:12:05.739Z,92.71
2022-12-01T03:15:21.627Z,93.60
2022-12-01T03:18:23.625Z,92.68
2022-12-01T03:21:06.544Z,93.09
2022-12-01T03:23:39.654Z,93.47
2022-12-01T03:26:09.538Z,95.57
2022-12-01T03:28:46.152Z,95.03
2022-12-01T03:31:17.786Z,93.76
2022-12-01T03:33:52.239Z,94.63
2022-12-01T03:36:35.555Z,94.32
2022-12-01T03:39:06.851Z,93.82
2022-12-01T03:41:48.947Z,92.95
2022-12-01T03:44:29.598Z,92.11
2022-12-01T03:47:09.846Z,93.24
2022-12-01T03:49:37.687Z,94.39
2022-12-01T03:52:22.816Z,94.22
2022-12-01T03:55:08.407Z,95.03
2022-12-01T03:57:48.366Z,94.17
2022-12-01T04:00:15.776Z,93.87
2022-12-01T04:02:42.818Z,93.75
2022-12-01T04:05:09.550Z,93.75
2022-12-01T04:07:39.599Z,94.02
2022-12-01T04:10:07.012Z,95.39
2022-12-01T04:12:33.727Z,94.82
2022-12-01T04:15:07.992Z,94.05
2022-12-01T04:17:34.960Z,94.85
2022-12-01T04:20:01.912Z,93.75
2022-12-01T04:22:28.619Z,93.64
2022-12-01T04:24:55.337Z,95.94
2022-12-01T04:27:22.093Z,97.32
2022-12-01T04:29:49.043Z,96.08
2022-12-01T04:32:16.589Z,96.33
2022-12-01T04:34:43.255Z,95.56
2022-12-01T04:37:10.167Z,95.76
2022-12-01T04:39:36.802Z,95.67
2022-12-01T04:42:04.211Z,96.14
2022-12-01T04:44:34.808Z,96.79
2022-12-01T04:47:03.550Z,96.44
2022-12-01T04:49:30.459Z,96.30
2022-12-01T04:51:57.147Z,96.81
2022-12-01T04:54:24.024Z,96.27
2022-12-01T04:56:50.814Z,97.98
2022-12-01T04:59:17.626Z,96.74
2022-12-01T05:01:44.775Z,96.26
2022-12-01T05:04:13.397Z,96.42
2022-12-01T05:06:40.376Z,95.73
2022-12-01T05:09:07.595Z,95.14
2022-12-01T05:11:34.375Z,96.65
2022-12-01T05:14:01.243Z,96.34
2022-12-01T05:16:31.916Z,96.77
2022-12-01T05:19:20.149Z,96.82
2022-12-01T05:21:49.078Z,97.10
2022-12-01T05:24:17.392Z,97.23
2022-12-01T05:26:45.155Z,97.94
2022-12-01T05:29:12.764Z,98.03
2022-12-01T05:31:39.957Z,97.43
2022-12-01T05:34:07.994Z,97.82
2022-12-01T05:36:34.719Z,99.00
2022-12-01T05:39:01.442Z,98.27
2022-12-01T05:41:28.314Z,99.43
2022-12-01T05:43:55.084Z,98.79
2022-12-01T05:46:21.810Z,98.41
2022-12-01T05:48:48.517Z,97.87
2022-12-01T05:51:16.988Z,98.09
2022-12-01T05:53:44.279Z,98.37
2022-12-01T05:56:11.004Z,98.68
2022-12-01T05:58:37.684Z,98.86
2022-12-01T06:01:04.486Z,98.20
2022-12-01T06:03:31.199Z,97.04
2022-12-01T06:05:57.847Z,96.89
2022-12-01T06:08:24.723Z,97.89
2022-12-01T06:10:51.397Z,98.09
2022-12-01T06:13:18.087Z,98.48
2022-12-01T06:15:44.668Z,97.80
2022-12-01T06:18:11.337Z,96.86
2022-12-01T06:20:38.033Z,95.88
2022-12-01T06:23:04.823Z,96.81
2022-12-01T06:25:31.479Z,96.75
2022-12-01T06:27:58.918Z,97.29
2022-12-01T06:30:25.957Z,97.33
2022-12-01T06:32:52.628Z,96.10
2022-12-01T06:35:19.522Z,96.02
2022-12-01T06:37:46.264Z,95.46
2022-12-01T06:40:13.239Z,94.23
2022-12-01T06:42:39.867Z,95.03
2022-12-01T06:45:07.137Z,94.96
2022-12-01T06:47:33.871Z,94.71
2022-12-01T06:50:00.780Z,95.34
2022-12-01T06:52:27.437Z,95.69
2022-12-01T06:54:54.099Z,95.79
2022-12-01T06:57:21.070Z,96.36
2022-12-01T06:59:48.160Z,95.93
2022-12-01T07:02:16.828Z,95.82
2022-12-01T07:04:43.595Z,95.70
2022-12-01T07:07:12.045Z,95.39
2022-12-01T07:09:39.432Z,94.88
2022-12-01T07:12:06.644Z,95.23
2022-12-01T07:14:33.656Z,95.26
2022-12-01T07:17:00.336Z,95.03
2022-12-01T07:19:27.267Z,93.33
2022-12-01T07:21:53.970Z,92.13
2022-12-01T07:24:20.616Z,91.34
2022-12-01T07:26:48.158Z,90.24
2022-12-01T07:29:14.921Z,90.72
2022-12-01T07:31:41.618Z,91.28
2022-12-01T07:34:12.086Z,90.43
2022-12-01T07:36:39.153Z,91.20
2022-12-01T07:39:07.606Z,91.81
2022-12-01T07:41:35.580Z,89.70
2022-12-01T07:44:02.923Z,89.83
2022-12-01T07:46:29.653Z,90.05
2022-12-01T07:48:57.074Z,90.09
2022-12-01T07:51:25.675Z,90.98
2022-12-01T07:53:54.331Z,90.21
2022-12-01T07:56:22.152Z,89.83
2022-12-01T07:58:49.155Z,89.79
2022-12-01T08:01:21.804Z,90.23
2022-12-01T08:03:50.313Z,90.11
2022-12-01T08:06:17.846Z,90.68
2022-12-01T08:08:44.907Z,90.75
2022-12-01T08:11:14.475Z,90.06
2022-12-01T08:13:41.941Z,89.45
2022-12-01T08:16:10.526Z,90.81
2022-12-01T08:18:38.959Z,90.15
2022-12-01T08:21:07.198Z,89.30
2022-12-01T08:23:34.424Z,88.90
2022-12-01T08:26:07.153Z,88.20
2022-12-01T08:28:36.330Z,88.07
2022-12-01T08:31:09.145Z,87.58
2022-12-01T08:33:35.964Z,87.42
2022-12-01T08:36:03.595Z,88.31
2022-12-01T08:38:30.419Z,87.81
2022-12-01T08:41:05.164Z,87.72
2022-12-01T08:43:56.603Z,87.90
2022-12-01T08:46:18.490Z,87.25
2022-12-01T08:48:45.356Z,87.30
2022-12-01T08:51:15.697Z,87.59
2022-12-01T08:53:45.806Z,87.13
2022-12-01T08:56:15.613Z,87.48
2022-12-01T08:58:42.670Z,87.42
2022-12-01T09:01:12.380Z,87.09
2022-12-01T09:03:40.222Z,86.95
2022-12-01T09:06:12.111Z,87.17
2022-12-01T09:08:39.099Z,87.53
2022-12-01T09:11:08.540Z,86.75
2022-12-01T09:13:36.415Z,87.00
2022-12-01T09:16:06.003Z,86.69
2022-12-01T09:18:33.425Z,87.37
2022-12-01T09:21:00.957Z,86.05
2022-12-01T09:23:27.712Z,85.84
2022-12-01T09:25:54.311Z,85.79
2022-12-01T09:28:21.077Z,86.43
2022-12-01T09:30:47.880Z,86.85
2022-12-01T09:33:14.604Z,86.89
2022-12-01T09:35:41.333Z,86.79
2022-12-01T09:38:07.994Z,86.81
2022-12-01T09:40:38.316Z,86.16
2022-12-01T09:43:12.894Z,86.08
2022-12-01T09:45:45.261Z,86.02
2022-12-01T09:48:25.603Z,86.12
2022-12-01T09:50:53.012Z,85.47
2022-12-01T09:53:23.810Z,85.88
2022-12-01T09:55:50.832Z,85.32
2022-12-01T09:58:25.755Z,85.34
2022-12-01T10:00:54.194Z,85.72
2022-12-01T10:03:50.542Z,86.17
2022-12-01T10:06:34.063Z,83.91
2022-12-01T10:09:39.143Z,83.21
2022-12-01T10:12:18.005Z,83.09
2022-12-01T10:14:46.579Z,83.77
2022-12-01T10:17:39.507Z,83.28
2022-12-01T10:20:24.450Z,84.58
2022-12-01T10:23:33.302Z,83.93
2022-12-01T10:26:09.933Z,83.67
2022-12-01T10:28:36.506Z,84.95
2022-12-01T10:31:34.626Z,83.79
2022-12-01T10:34:06.300Z,83.42
2022-12-01T10:36:34.661Z,83.95
2022-12-01T10:39:04.808Z,84.25
2022-12-01T10:41:36.134Z,83.14
2022-12-01T10:44:05.749Z,83.14
2022-12-01T10:46:43.393Z,82.90
2022-12-01T10:49:15.295Z,83.09
2022-12-01T10:51:57.434Z,81.47
2022-12-01T10:54:33.103Z,81.50
2022-12-01T10:57:00.832Z,81.25
2022-12-01T11:00:25.489Z,81.55
2022-12-01T11:02:59.667Z,82.59
2022-12-01T11:05:39.073Z,83.70
2022-12-01T11:08:06.075Z,81.59
2022-12-01T11:10:33.887Z,82.10
2022-12-01T11:13:23.951Z,81.36
2022-12-01T11:15:53.315Z,81.55
2022-12-01T11:18:24.454Z,82.01
2022-12-01T11:21:27.790Z,81.35
2022-12-01T11:23:56.216Z,80.75
2022-12-01T11:26:32.353Z,81.19
2022-12-01T11:29:02.588Z,81.33
2022-12-01T11:31:55.755Z,82.24
2022-12-01T11:34:34.268Z,81.43
2022-12-01T11:37:04.421Z,81.20
2022-12-01T11:39:39.407Z,81.93
2022-12-01T11:42:12.259Z,80.40
2022-12-01T11:44:51.359Z,80.70
2022-12-01T11:47:25.119Z,80.62
2022-12-01T11:50:00.003Z,81.43
2022-12-01T11:52:30.845Z,80.46
2022-12-01T11:55:08.449Z,81.08
2022-12-01T11:57:39.049Z,80.29
2022-12-01T12:00:16.345Z,81.22
2022-12-01T12:02:57.952Z,80.71
2022-12-01T12:05:33.439Z,80.82
2022-12-01T12:08:34.991Z,80.78
2022-12-01T12:11:43.281Z,80.98
2022-12-01T12:14:21.973Z,81.77
2022-12-01T12:17:12.672Z,80.82
2022-12-01T12:20:08.505Z,79.91
2022-12-01T12:23:01.289Z,80.09
2022-12-01T12:25:52.070Z,79.70
2022-12-01T12:28:34.454Z,80.56
2022-12-01T12:31:29.629Z,80.80
2022-12-01T12:34:22.899Z,79.68
2022-12-01T12:37:01.301Z,79.34
2022-12-01T12:39:59.210Z,78.83
2022-12-01T12:43:04.407Z,78.93
2022-12-01T12:45:49.543Z,78.59
2022-12-01T12:48:38.627Z,78.72
2022-12-01T12:51:21.099Z,80.13
2022-12-01T12:53:59.865Z,79.02
2022-12-01T12:56:30.510Z,79.30
2022-12-01T12:59:01.324Z,79.42
2022-12-01T13:01:38.460Z,79.06
2022-12-01T13:04:13.578Z,79.28
2022-12-01T13:06:50.056Z,78.93
2022-12-01T13:09:19.433Z,79.79
2022-12-01T13:11:52.012Z,79.37
2022-12-01T13:14:27.903Z,77.98
2022-12-01T13:17:01.577Z,80.56
2022-12-01T13:19:37.170Z,81.56
2022-12-01T13:22:05.868Z,80.64
2022-12-01T13:24:32.856Z,81.42
2022-12-01T13:27:14.114Z,82.32
2022-12-01T13:29:50.094Z,84.63
2022-12-01T13:32:36.820Z,84.68
2022-12-01T13:35:17.554Z,86.50
2022-12-01T13:37:44.221Z,85.27
2022-12-01T13:40:21.836Z,84.58
2022-12-01T13:43:07.053Z,85.00
2022-12-01T13:45:40.019Z,86.40
2022-12-01T13:48:26.447Z,87.05
2022-12-01T13:50:52.989Z,86.24
2022-12-01T13:53:19.580Z,86.11
2022-12-01T13:56:24.303Z,84.30
2022-12-01T13:58:53.822Z,83.64
2022-12-01T14:01:20.879Z,84.96
2022-12-01T14:03:56.986Z,85.02
2022-12-01T14:06:36.084Z,87.73
2022-12-01T14:09:16.643Z,89.23
2022-12-01T14:12:05.761Z,91.31
2022-12-01T14:14:38.956Z,93.06
2022-12-01T14:17:06.380Z,93.03
2022-12-01T14:19:52.055Z,92.06
2022-12-01T14:22:39.180Z,90.97
2022-12-01T14:25:29.137Z,89.59
2022-12-01T14:28:04.418Z,91.23
2022-12-01T14:30:46.172Z,92.32
2022-12-01T14:33:57.804Z,92.93
2022-12-01T14:36:24.421Z,92.29
2022-12-01T14:38:54.608Z,91.43
2022-12-01T14:41:46.091Z,90.42
2022-12-01T14:44:36.314Z,90.32
2022-12-01T14:47:11.777Z,89.61
2022-12-01T14:49:42.058Z,89.10
2022-12-01T14:52:29.700Z,88.34
2022-12-01T14:54:59.366Z,88.07
2022-12-01T14:57:32.575Z,87.59
2022-12-01T15:00:10.936Z,88.24
2022-12-01T15:02:48.594Z,88.86
2022-12-01T15:05:20.586Z,89.12
2022-12-01T15:07:50.215Z,89.08
2022-12-01T15:10:35.343Z,89.46
2022-12-01T15:13:30.756Z,89.31
2022-12-01T15:15:58.811Z,88.84
2022-12-01T15:18:33.818Z,88.40
2022-12-01T15:21:12.141Z,89.18
2022-12-01T15:23:54.120Z,89.03
2022-12-01T15:26:23.924Z,89.00
2022-12-01T15:29:03.220Z,88.22
2022-12-01T15:31:30.015Z,88.16
2022-12-01T15:33:56.948Z,88.66
2022-12-01T15:36:24.027Z,87.94
2022-12-01T15:38:50.830Z,88.53
2022-12-01T15:41:29.491Z,89.12
2022-12-01T15:43:58.905Z,89.21
2022-12-01T15:46:31.636Z,88.26
2022-12-01T15:49:09.390Z,88.27
2022-12-01T15:51:36.295Z,88.51
2022-12-01T15:54:03.637Z,89.81
2022-12-01T15:56:37.987Z,89.30
2022-12-01T15:59:13.559Z,89.72
2022-12-01T16:01:44.317Z,89.89
2022-12-01T16:04:26.287Z,89.11
2022-12-01T16:07:03.288Z,89.29
2022-12-01T16:09:35.771Z,89.87
2022-12-01T16:12:04.477Z,89.62
2022-12-01T16:14:32.316Z,90.23
2022-12-01T16:17:00.099Z,90.60
2022-12-01T16:19:32.424Z,91.71
2022-12-01T16:22:11.539Z,93.49
2022-12-01T16:24:46.656Z,95.15
2022-12-01T16:27:23.674Z,95.78
2022-12-01T16:30:00.841Z,95.52
2022-12-01T16:32:35.568Z,98.74
2022-12-01T16:35:04.265Z,100.00
2022-12-01T16:37:31.432Z,100.00
2022-12-01T16:39:58.749Z,100.00
2022-12-01T16:42:25.399Z,99.57
2022-12-01T16:44:52.797Z,98.49
2022-12-01T16:47:24.547Z,97.94
2022-12-01T16:49:52.378Z,97.73
2022-12-01T16:52:43.692Z,97.80
2022-12-01T16:55:24.046Z,98.07
2022-12-01T16:57:50.693Z,97.72
2022-12-01T17:00:17.610Z,97.84
2022-12-01T17:02:44.373Z,98.37
2022-12-01T17:05:11.737Z,98.18
2022-12-01T17:07:38.445Z,97.66
2022-12-01T17:10:06.670Z,97.71
2022-12-01T17:12:33.333Z,98.64
2022-12-01T17:14:59.954Z,98.29
2022-12-01T17:17:29.363Z,98.26
2022-12-01T17:19:56.179Z,98.28
2022-12-01T17:22:23.067Z,99.88
2022-12-01T17:24:50.220Z,99.80
2022-12-01T17:27:17.179Z,100.00
2022-12-01T17:29:46.254Z,99.63
2022-12-01T17:32:14.207Z,99.35
2022-12-01T17:34:41.155Z,99.78
2022-12-01T17:37:10.115Z,99.52
2022-12-01T17:39:36.811Z,98.89
2022-12-01T17:42:03.827Z,100.00
2022-12-01T17:44:30.440Z,99.88
2022-12-01T17:46:57.238Z,99.74
2022-12-01T17:49:23.902Z,99.09
2022-12-01T17:51:50.646Z,100.00
2022-12-01T17:54:17.301Z,99.65
2022-12-01T17:56:43.957Z,99.21
2022-12-01T17:59:10.725Z,99.49
2022-12-01T18:01:37.642Z,99.41
2022-12-01T18:04:04.539Z,99.17
2022-12-01T18:06:31.428Z,99.35
2022-12-01T18:09:00.656Z,99.35
2022-12-01T18:11:27.974Z,100.00
2022-12-01T18:13:54.840Z,100.00
2022-12-01T18:16:27.032Z,100.00
2022-12-01T18:18:54.765Z,100.00
2022-12-01T18:21:23.598Z,100.00
2022-12-01T18:23:52.270Z,100.00
2022-12-01T18:26:20.489Z,100.00
2022-12-01T18:28:47.200Z,100.00
2022-12-01T18:31:15.962Z,100.00
2022-12-01T18:33:44.017Z,100.00
2022-12-01T18:36:38.562Z,99.77
2022-12-01T18:39:07.724Z,100.00
2022-12-01T18:41:35.496Z,99.92
2022-12-01T18:44:02.769Z,100.00
2022-12-01T18:46:29.609Z,100.00
2022-12-01T18:49:04.705Z,100.00
2022-12-01T18:51:33.604Z,100.00
2022-12-01T18:54:01.588Z,100.00
2022-12-01T18:56:29.424Z,100.00
2022-12-01T18:58:58.025Z,100.00
2022-12-01T19:01:27.447Z,100.00
2022-12-01T19:03:55.541Z,100.00
2022-12-01T19:06:23.407Z,100.00
2022-12-01T19:08:52.041Z,100.00
2022-12-01T19:11:18.832Z,100.00
2022-12-01T19:13:46.183Z,100.00
2022-12-01T19:16:15.459Z,100.00
2022-12-01T19:18:42.870Z,100.00
2022-12-01T19:21:12.559Z,100.00
2022-12-01T19:23:40.224Z,100.00
2022-12-01T19:26:10.112Z,100.00
2022-12-01T19:28:37.450Z,100.00
2022-12-01T19:31:08.931Z,100.00
2022-12-01T19:33:35.706Z,100.00
2022-12-01T19:36:13.729Z,100.00
2022-12-01T19:38:40.720Z,100.00
2022-12-01T19:41:08.977Z,100.00
2022-12-01T19:43:36.460Z,100.00
2022-12-01T19:46:12.555Z,100.00
2022-12-01T19:48:39.588Z,100.00
2022-12-01T19:51:07.030Z,100.00
2022-12-01T19:53:34.272Z,100.00
2022-12-01T19:56:05.092Z,100.00
2022-12-01T19:58:35.285Z,100.00
2022-12-01T20:01:07.165Z,100.00
2022-12-01T20:03:35.832Z,100.00
2022-12-01T20:06:04.618Z,100.00
2022-12-01T20:08:35.567Z,100.00
2022-12-01T20:11:06.262Z,100.00
2022-12-01T20:13:37.894Z,100.00
2022-12-01T20:16:06.017Z,100.00
2022-12-01T20:18:33.097Z,100.00
2022-12-01T20:21:10.741Z,100.00
2022-12-01T20:23:37.438Z,100.00
2022-12-01T20:26:06.975Z,100.00
2022-12-01T20:28:34.218Z,100.00
2022-12-01T20:31:01.026Z,100.00
2022-12-01T20:33:28.302Z,100.00
2022-12-01T20:35:55.045Z,100.00
2022-12-01T20:38:27.022Z,100.00
2022-12-01T20:40:54.400Z,100.00
2022-12-01T20:43:21.109Z,100.00
2022-12-01T20:45:47.842Z,100.00
2022-12-01T20:48:14.694Z,100.00
2022-12-01T20:50:41.361Z,100.00
2022-12-01T20:53:08.047Z,100.00
2022-12-01T20:55:36.751Z,99.42
2022-12-01T20:58:10.300Z,99.13
2022-12-01T21:00:40.339Z,99.03
2022-12-01T21:03:07.169Z,99.01
2022-12-01T21:05:33.918Z,98.99
2022-12-01T21:08:01.376Z,98.57
2022-12-01T21:10:28.472Z,97.73
2022-12-01T21:13:18.261Z,100.00
2022-12-01T21:16:01.845Z,100.00
2022-12-01T21:18:41.371Z,100.00
2022-12-01T21:21:21.249Z,100.00
2022-12-01T21:23:53.696Z,100.00
2022-12-01T21:26:20.364Z,100.00
2022-12-01T21:28:47.096Z,100.00
2022-12-01T21:31:15.314Z,100.00
2022-12-01T21:33:42.530Z,100.00
2022-12-01T21:36:21.764Z,100.00
2022-12-01T21:38:53.280Z,100.00
2022-12-01T21:41:28.126Z,100.00
2022-12-01T21:44:00.241Z,100.00
2022-12-01T21:46:27.553Z,100.00
2022-12-01T21:48:54.645Z,100.00
2022-12-01T21:51:23.204Z,100.00
2022-12-01T21:53:51.409Z,100.00
2022-12-01T21:56:24.448Z,100.00
2022-12-01T21:58:52.395Z,100.00
2022-12-01T22:01:32.505Z,100.00
2022-12-01T22:04:02.626Z,100.00
2022-12-01T22:06:38.070Z,100.00
2022-12-01T22:09:31.276Z,100.00
2022-12-01T22:12:08.292Z,100.00
2022-12-01T22:14:36.100Z,100.00
2022-12-01T22:17:18.532Z,100.00
2022-12-01T22:19:49.689Z,100.00
2022-12-01T22:22:23.676Z,100.00
2022-12-01T22:24:59.486Z,100.00
2022-12-01T22:27:39.414Z,100.00
2022-12-01T22:30:05.991Z,100.00
2022-12-01T22:32:57.116Z,100.00
2022-12-01T22:35:28.422Z,100.00
2022-12-01T22:38:15.177Z,100.00
2022-12-01T22:41:03.403Z,100.00
2022-12-01T22:43:39.149Z,100.00
2022-12-01T22:46:25.869Z,100.00
2022-12-01T22:49:13.564Z,100.00
2022-12-01T22:51:47.929Z,100.00
2022-12-01T22:54:14.505Z,100.00
2022-12-01T22:57:05.394Z,100.00
2022-12-01T22:59:36.632Z,100.00
2022-12-01T23:02:25.166Z,100.00
2022-12-01T23:05:07.552Z,100.00
2022-12-01T23:07:36.954Z,100.00
2022-12-01T23:10:17.652Z,100.00
2022-12-01T23:12:46.183Z,100.00
2022-12-01T23:15:32.160Z,100.00
2022-12-01T23:18:22.136Z,100.00
2022-12-01T23:20:51.842Z,100.00
2022-12-01T23:23:21.369Z,100.00
2022-12-01T23:25:50.492Z,100.00
2022-12-01T23:28:18.408Z,100.00
2022-12-01T23:30:47.681Z,100.00
2022-12-01T23:33:28.715Z,100.00
2022-12-01T23:36:05.521Z,100.00
2022-12-01T23:38:38.680Z,100.00
2022-12-01T23:41:08.309Z,100.00
2022-12-01T23:43:42.694Z,100.00
2022-12-01T23:46:18.925Z,100.00
2022-12-01T23:48:49.235Z,100.00
2022-12-01T23:51:18.396Z,100.00
2022-12-01T23:53:46.681Z,100.00
2022-12-01T23:56:19.734Z,100.00
2022-12-01T23:58:46.529Z,100.00
